createdAt,value
2022-11-17T00:16:23.890Z,4.86
2022-11-17T00:36:23.912Z,4.74
2022-11-17T00:56:23.725Z,4.65
2022-11-17T01:16:23.791Z,4.45
2022-11-17T01:36:23.807Z,4.28
2022-11-17T01:56:23.722Z,4.12
2022-11-17T02:16:23.751Z,4.01
2022-11-17T02:36:23.593Z,3.92
2022-11-17T02:56:23.633Z,3.84
2022-11-17T03:56:23.576Z,3.74
2022-11-17T04:36:23.407Z,3.77
2022-11-17T04:56:23.475Z,3.78
2022-11-17T05:16:23.464Z,3.8
2022-11-17T05:36:23.439Z,3.87
2022-11-17T05:56:23.375Z,3.93
2022-11-17T06:16:23.360Z,3.97
2022-11-17T06:36:23.269Z,4
2022-11-17T06:56:23.294Z,4.07
2022-11-17T07:16:24.119Z,4.13
2022-11-17T07:36:23.220Z,4.19
2022-11-17T07:56:23.209Z,4.23
2022-11-17T08:16:30.150Z,4.27
2022-11-17T08:36:23.123Z,4.37
2022-11-17T08:56:23.017Z,4.4
2022-11-17T09:36:23.122Z,4.57
2022-11-17T09:56:23.004Z,4.64
2022-11-17T10:16:23.041Z,4.71
2022-11-17T10:36:22.882Z,4.82
2022-11-17T10:56:22.836Z,4.88
2022-11-17T11:16:22.774Z,5.01
2022-11-17T11:36:22.785Z,5.1
2022-11-17T11:56:22.714Z,5.12
2022-11-17T12:16:22.720Z,5.15
2022-11-17T12:36:26.987Z,5.18
2022-11-17T12:56:22.640Z,5.17
2022-11-17T13:16:22.592Z,5.15
2022-11-17T13:36:22.570Z,5.13
2022-11-17T13:56:22.542Z,5.12
2022-11-17T14:16:22.513Z,5.08
2022-11-17T14:36:22.535Z,4.56
2022-11-17T14:56:22.415Z,4.45
2022-11-17T15:16:22.462Z,4.28
2022-11-17T15:36:22.568Z,3.93
2022-11-17T15:56:22.323Z,3.85
2022-11-17T16:16:22.358Z,3.87
2022-11-17T16:36:22.275Z,3.82
2022-11-17T16:56:22.280Z,3.76
2022-11-17T17:16:22.223Z,3.57
2022-11-17T17:36:22.171Z,3.39
2022-11-17T17:56:22.143Z,3.34
2022-11-17T18:16:22.246Z,3.3
2022-11-17T18:36:22.093Z,3.13
2022-11-17T18:56:22.237Z,3.12
2022-11-17T19:16:22.019Z,3.2
2022-11-17T19:36:22.082Z,3.05
2022-11-17T19:56:21.996Z,2.9
2022-11-17T20:16:21.973Z,2.85
2022-11-17T20:36:21.915Z,2.76
2022-11-17T20:56:21.971Z,2.73
2022-11-17T21:16:21.866Z,2.68
2022-11-17T21:36:21.857Z,2.53
2022-11-17T21:56:21.807Z,2.49
2022-11-17T22:36:21.773Z,2.31
2022-11-17T22:56:21.726Z,2.13
2022-11-17T23:16:21.684Z,2.04
2022-11-17T23:36:21.665Z,1.99
2022-11-17T23:56:21.649Z,1.93
